Flight Track Log - Related Links

Times and Time Zones

All times are in EDT time to prevent confusion due to time zone crossing. See the EJA370 flight status page for this flight to view local times or setup timezone preferences in your user account.

Time Position Orientation Groundspeed Altitude Reporting Facility
EDT Latitude Longitude Course Direction KTS MPH feet Rate Location/Type
Tue 07:42:48 AM 35.3811 -97.5944 179° South 165 190 1,900  Level Fort Worth Center
Tue 07:43:12 AM 35.3561 -97.5942 179° South 189 217 3,200 3,600 Climbing Fort Worth Center
Tue 07:44:03 AM 35.3039 -97.6019 187° South 261 300 6,400 3,940 Climbing Fort Worth Center
Tue 07:44:19 AM 35.2850 -97.6169 213° Southwest 274 315 7,600 4,000 Climbing Fort Worth Center
Tue 07:45:03 AM 35.2369 -97.6525 211° Southwest 269 310 10,400 3,635 Climbing Fort Worth Center
Tue 07:46:03 AM 35.1681 -97.7081 213° Southwest 291 335 13,900 3,350 Climbing Fort Worth Center
Tue 07:47:03 AM 35.0928 -97.7661 212° Southwest 311 358 17,100 2,700 Climbing Fort Worth Center
Tue 07:48:03 AM 35.0092 -97.8267 211° Southwest 334 384 19,300 2,550 Climbing Fort Worth Center
Tue 07:49:03 AM 34.9236 -97.8922 212° Southwest 352 405 22,200 2,450 Climbing Fort Worth Center
Tue 07:50:03 AM 34.8356 -97.9600 212° Southwest 364 419 24,200 2,050 Climbing Fort Worth Center
Tue 07:51:03 AM 34.7433 -98.0328 213° Southwest 383 441 26,300 2,100 Climbing Fort Worth Center
Tue 07:52:03 AM 34.6492 -98.1053 212° Southwest 396 456 28,400 2,100 Climbing Fort Worth Center
Tue 07:53:03 AM 34.5550 -98.1700 210° Southwest 401 461 30,500 1,650 Climbing Fort Worth Center
Tue 07:54:03 AM 34.4606 -98.2447 213° Southwest 401 461 31,700 750 Climbing Fort Worth Center
Tue 07:55:03 AM 34.3619 -98.3192 212° Southwest 411 473 32,000 150 Climbing Fort Worth Center
Tue 07:56:03 AM 34.2572 -98.3961 211° Southwest 424 488 32,000 200 Level Fort Worth Center
Tue 07:57:03 AM 34.1522 -98.4750 212° Southwest 442 509 32,400 650 Climbing Fort Worth Center
Tue 07:58:03 AM 34.0578 -98.5367 208° Southwest 442 509 33,300 800 Climbing Fort Worth Center
Tue 07:59:03 AM 33.9461 -98.6303 215° Southwest 442 509 34,000 350 Climbing Fort Worth Center
Tue 08:00:03 AM 33.8450 -98.7164 215° Southwest 449 517 34,000  Level Fort Worth Center
Tue 08:01:03 AM 33.7544 -98.7950 216° Southwest 449 517 34,000  Level Fort Worth Center
Tue 08:02:03 AM 33.6556 -98.8808 216° Southwest 449 517 34,000  Level Fort Worth Center
Tue 08:03:03 AM 33.5564 -98.9639 215° Southwest 449 517 34,000  Level Fort Worth Center
Tue 08:04:03 AM 33.4594 -99.0442 215° Southwest 449 517 34,000  Level Fort Worth Center
Tue 08:05:03 AM 33.3767 -99.1447 225° Southwest 443 510 34,000  Level Fort Worth Center
Tue 08:06:03 AM 33.3228 -99.2681 242° Southwest 419 482 34,000  Level Fort Worth Center
Tue 08:07:03 AM 33.2667 -99.3886 241° Southwest 419 482 34,000  Level Fort Worth Center
Tue 08:08:03 AM 33.2125 -99.5092 242° Southwest 419 482 34,000  Level Fort Worth Center
Tue 08:09:03 AM 33.1561 -99.6317 241° Southwest 419 482 34,000  Level Fort Worth Center
Tue 08:10:03 AM 33.0994 -99.7544 241° Southwest 419 482 34,000  Level Fort Worth Center
Tue 08:11:03 AM 33.0428 -99.8767 241° Southwest 419 482 34,000  Level Fort Worth Center
Tue 08:12:03 AM 32.9903 -99.9992 243° Southwest 419 482 34,000  Level Fort Worth Center
Tue 08:13:03 AM 32.9314 -100.1211 240° Southwest 425 489 34,000  Level Fort Worth Center
Tue 08:14:03 AM 32.8764 -100.2431 242° Southwest 425 489 34,000  Level Fort Worth Center
Tue 08:15:03 AM 32.8194 -100.3700 242° Southwest 430 495 34,000  Level Fort Worth Center
Tue 08:16:03 AM 32.7600 -100.4889 239° Southwest 425 489 34,000 -500 Level Fort Worth Center
Tue 08:17:03 AM 32.7050 -100.6106 242° Southwest 425 489 33,000 -1,800 Descending Fort Worth Center
Tue 08:18:03 AM 32.6519 -100.7247 241° Southwest 414 476 30,400 -2,400 Descending Fort Worth Center
Tue 08:19:03 AM 32.5942 -100.8458 241° Southwest 414 476 28,200 -2,200 Descending Fort Worth Center
Tue 08:20:03 AM 32.5367 -100.9667 241° Southwest 414 476 26,000 -2,200 Descending Fort Worth Center
Tue 08:21:03 AM 32.4833 -101.0803 241° Southwest 414 476 23,800 -2,200 Descending Fort Worth Center
Tue 08:22:03 AM 32.4319 -101.1939 242° Southwest 409 471 21,600 -2,150 Descending Fort Worth Center
Tue 08:23:03 AM 32.3697 -101.3167 239° Southwest 399 459 19,500 -1,900 Descending Fort Worth Center
Tue 08:24:03 AM 32.3181 -101.4275 241° Southwest 393 452 17,800 -1,750 Descending Fort Worth Center
Tue 08:25:03 AM 32.2669 -101.5311 240° Southwest 380 437 16,000 -1,650 Descending Fort Worth Center
Tue 08:26:03 AM 32.2219 -101.6272 241° Southwest 364 419 14,500 -1,600 Descending Fort Worth Center
Tue 08:27:03 AM 32.1811 -101.7258 244° Southwest 345 397 12,800 -1,900 Descending Fort Worth Center
Tue 08:28:03 AM 32.1400 -101.8269 244° Southwest 340 391 10,700 -1,850 Descending Fort Worth Center
Tue 08:29:03 AM 32.1011 -101.9206 244° Southwest 335 386 9,100 -1,550 Descending Fort Worth Center
Tue 08:30:03 AM 32.0711 -102.0025 247° West 308 354 7,600 -1,500 Descending Fort Worth Center
Tue 08:31:03 AM 32.0411 -102.0794 245° Southwest 278 320 6,100 -1,500 Descending Fort Worth Center
Tue 08:32:03 AM 32.0175 -102.1517 249° West 260 299 4,600 -1,200 Descending Fort Worth Center
Tue 08:33:03 AM 31.9967 -102.2022 244° Southwest 219 252 3,700 -750 Descending Fort Worth Center
Tue 08:34:03 AM 31.9714 -102.2081 191° South 154 177 3,100 -600 Descending Fort Worth Center
Tue 08:39:00 AM 31.9425 -102.2019 66° East  Level Estimated

Login

Don't have an account? Register now (free) for customized features, flight alerts, and more!